sensor_id;sensor_type;location;lat;lon;timestamp;pressure;altitude;pressure_sealevel;temperature
48894;BMP280;34710;35.798;139.446;2023-04-25T00:01:14;101590.53;;;18.01
48894;BMP280;34710;35.798;139.446;2023-04-25T00:03:39;101585.29;;;16.76
48894;BMP280;34710;35.798;139.446;2023-04-25T00:06:06;101586.04;;;18.00
48894;BMP280;34710;35.798;139.446;2023-04-25T00:08:32;101582.22;;;17.31
48894;BMP280;34710;35.798;139.446;2023-04-25T00:10:56;101584.03;;;19.00
48894;BMP280;34710;35.798;139.446;2023-04-25T00:13:22;101588.25;;;19.86
48894;BMP280;34710;35.798;139.446;2023-04-25T00:15:47;101585.48;;;20.09
48894;BMP280;34710;35.798;139.446;2023-04-25T00:18:12;101583.21;;;18.46
48894;BMP280;34710;35.798;139.446;2023-04-25T00:20:38;101576.06;;;17.56
48894;BMP280;34710;35.798;139.446;2023-04-25T00:23:04;101566.67;;;17.83
48894;BMP280;34710;35.798;139.446;2023-04-25T00:25:29;101565.06;;;20.07
48894;BMP280;34710;35.798;139.446;2023-04-25T00:27:55;101565.88;;;19.80
48894;BMP280;34710;35.798;139.446;2023-04-25T00:30:20;101565.16;;;20.49
48894;BMP280;34710;35.798;139.446;2023-04-25T00:32:45;101558.89;;;20.90
48894;BMP280;34710;35.798;139.446;2023-04-25T00:35:11;101555.88;;;21.23
48894;BMP280;34710;35.798;139.446;2023-04-25T00:37:36;101556.80;;;21.76
48894;BMP280;34710;35.798;139.446;2023-04-25T00:40:02;101548.72;;;21.17
48894;BMP280;34710;35.798;139.446;2023-04-25T00:42:28;101542.52;;;22.18
48894;BMP280;34710;35.798;139.446;2023-04-25T00:44:53;101540.09;;;21.82
48894;BMP280;34710;35.798;139.446;2023-04-25T00:47:18;101542.79;;;21.73
48894;BMP280;34710;35.798;139.446;2023-04-25T00:49:43;101540.10;;;20.52
48894;BMP280;34710;35.798;139.446;2023-04-25T00:52:08;101535.79;;;21.67
48894;BMP280;34710;35.798;139.446;2023-04-25T00:54:34;101534.36;;;21.06
48894;BMP280;34710;35.798;139.446;2023-04-25T00:57:00;101535.72;;;21.61
48894;BMP280;34710;35.798;139.446;2023-04-25T00:59:25;101533.06;;;20.85
48894;BMP280;34710;35.798;139.446;2023-04-25T01:01:50;101530.11;;;21.20
48894;BMP280;34710;35.798;139.446;2023-04-25T01:04:16;101527.87;;;20.83
48894;BMP280;34710;35.798;139.446;2023-04-25T01:06:42;101524.51;;;21.99
48894;BMP280;34710;35.798;139.446;2023-04-25T01:09:08;101525.49;;;22.93
48894;BMP280;34710;35.798;139.446;2023-04-25T01:11:33;101530.96;;;23.01
48894;BMP280;34710;35.798;139.446;2023-04-25T01:13:58;101534.09;;;23.58
48894;BMP280;34710;35.798;139.446;2023-04-25T01:16:23;101524.24;;;23.44
48894;BMP280;34710;35.798;139.446;2023-04-25T01:18:49;101514.36;;;22.42
48894;BMP280;34710;35.798;139.446;2023-04-25T01:21:15;101515.42;;;22.79
48894;BMP280;34710;35.798;139.446;2023-04-25T01:23:41;101514.32;;;20.48
48894;BMP280;34710;35.798;139.446;2023-04-25T01:26:06;101508.82;;;20.72
48894;BMP280;34710;35.798;139.446;2023-04-25T01:28:30;101508.24;;;21.96
48894;BMP280;34710;35.798;139.446;2023-04-25T01:30:57;101508.62;;;23.72
48894;BMP280;34710;35.798;139.446;2023-04-25T01:33:23;101512.04;;;20.64
48894;BMP280;34710;35.798;139.446;2023-04-25T01:35:47;101513.77;;;20.57
48894;BMP280;34710;35.798;139.446;2023-04-25T01:38:14;101512.42;;;19.41
48894;BMP280;34710;35.798;139.446;2023-04-25T01:40:40;101498.45;;;21.13
48894;BMP280;34710;35.798;139.446;2023-04-25T01:43:04;101495.63;;;20.40
48894;BMP280;34710;35.798;139.446;2023-04-25T01:45:29;101482.82;;;20.47
48894;BMP280;34710;35.798;139.446;2023-04-25T01:47:54;101486.02;;;18.06
48894;BMP280;34710;35.798;139.446;2023-04-25T01:50:20;101478.63;;;20.05
48894;BMP280;34710;35.798;139.446;2023-04-25T01:52:46;101478.13;;;19.68
48894;BMP280;34710;35.798;139.446;2023-04-25T01:55:11;101470.03;;;17.70
48894;BMP280;34710;35.798;139.446;2023-04-25T01:57:37;101470.39;;;18.82
48894;BMP280;34710;35.798;139.446;2023-04-25T02:00:06;101466.13;;;19.29
48894;BMP280;34710;35.798;139.446;2023-04-25T02:02:28;101458.36;;;17.09
48894;BMP280;34710;35.798;139.446;2023-04-25T02:04:53;101435.95;;;20.01
48894;BMP280;34710;35.798;139.446;2023-04-25T02:07:18;101446.85;;;17.69
48894;BMP280;34710;35.798;139.446;2023-04-25T02:09:44;101444.52;;;18.76
48894;BMP280;34710;35.798;139.446;2023-04-25T02:12:11;101439.52;;;16.26
48894;BMP280;34710;35.798;139.446;2023-04-25T02:14:35;101439.56;;;17.51
48894;BMP280;34710;35.798;139.446;2023-04-25T02:17:00;101432.88;;;17.32
48894;BMP280;34710;35.798;139.446;2023-04-25T02:19:25;101427.33;;;17.89
48894;BMP280;34710;35.798;139.446;2023-04-25T02:21:51;101409.92;;;19.81
48894;BMP280;34710;35.798;139.446;2023-04-25T02:24:16;101408.43;;;17.66
48894;BMP280;34710;35.798;139.446;2023-04-25T02:26:42;101392.81;;;18.38
48894;BMP280;34710;35.798;139.446;2023-04-25T02:29:07;101392.48;;;16.96
48894;BMP280;34710;35.798;139.446;2023-04-25T02:31:33;101390.06;;;17.15
48894;BMP280;34710;35.798;139.446;2023-04-25T02:33:58;101393.33;;;18.21
48894;BMP280;34710;35.798;139.446;2023-04-25T02:36:23;101394.70;;;18.34
48894;BMP280;34710;35.798;139.446;2023-04-25T02:38:49;101395.79;;;18.51
48894;BMP280;34710;35.798;139.446;2023-04-25T02:41:14;101390.26;;;19.23
48894;BMP280;34710;35.798;139.446;2023-04-25T02:43:40;101383.50;;;18.56
48894;BMP280;34710;35.798;139.446;2023-04-25T02:46:05;101386.54;;;17.67
48894;BMP280;34710;35.798;139.446;2023-04-25T02:48:30;101373.59;;;18.27
48894;BMP280;34710;35.798;139.446;2023-04-25T02:50:56;101370.43;;;18.16
48894;BMP280;34710;35.798;139.446;2023-04-25T02:53:22;101371.33;;;17.12
48894;BMP280;34710;35.798;139.446;2023-04-25T02:55:48;101357.47;;;18.04
48894;BMP280;34710;35.798;139.446;2023-04-25T02:58:14;101353.51;;;18.91
48894;BMP280;34710;35.798;139.446;2023-04-25T03:00:39;101352.67;;;18.51
48894;BMP280;34710;35.798;139.446;2023-04-25T03:03:04;101353.56;;;18.21
48894;BMP280;34710;35.798;139.446;2023-04-25T03:05:29;101341.51;;;16.15
48894;BMP280;34710;35.798;139.446;2023-04-25T03:07:54;101330.19;;;17.06
48894;BMP280;34710;35.798;139.446;2023-04-25T03:10:20;101325.78;;;18.36
48894;BMP280;34710;35.798;139.446;2023-04-25T03:12:46;101322.33;;;18.14
48894;BMP280;34710;35.798;139.446;2023-04-25T03:15:12;101320.46;;;17.56
48894;BMP280;34710;35.798;139.446;2023-04-25T03:17:37;101313.99;;;18.36
48894;BMP280;34710;35.798;139.446;2023-04-25T03:20:04;101310.47;;;18.34
48894;BMP280;34710;35.798;139.446;2023-04-25T03:22:28;101308.85;;;17.42
48894;BMP280;34710;35.798;139.446;2023-04-25T03:24:54;101306.31;;;17.39
48894;BMP280;34710;35.798;139.446;2023-04-25T03:27:19;101301.08;;;17.31
48894;BMP280;34710;35.798;139.446;2023-04-25T03:29:46;101307.61;;;16.55
48894;BMP280;34710;35.798;139.446;2023-04-25T03:32:10;101300.90;;;15.57
48894;BMP280;34710;35.798;139.446;2023-04-25T03:34:35;101299.75;;;15.30
48894;BMP280;34710;35.798;139.446;2023-04-25T03:37:02;101298.70;;;15.78
48894;BMP280;34710;35.798;139.446;2023-04-25T03:39:27;101288.76;;;15.70
48894;BMP280;34710;35.798;139.446;2023-04-25T03:41:52;101287.92;;;17.10
48894;BMP280;34710;35.798;139.446;2023-04-25T03:44:17;101291.56;;;16.84
48894;BMP280;34710;35.798;139.446;2023-04-25T03:46:43;101288.88;;;15.67
48894;BMP280;34710;35.798;139.446;2023-04-25T03:49:08;101286.78;;;17.03
48894;BMP280;34710;35.798;139.446;2023-04-25T03:51:34;101293.76;;;15.91
48894;BMP280;34710;35.798;139.446;2023-04-25T03:53:59;101288.89;;;15.70
48894;BMP280;34710;35.798;139.446;2023-04-25T03:56:24;101284.83;;;16.50
48894;BMP280;34710;35.798;139.446;2023-04-25T03:58:50;101286.05;;;16.04
48894;BMP280;34710;35.798;139.446;2023-04-25T04:01:15;101283.68;;;16.20
48894;BMP280;34710;35.798;139.446;2023-04-25T04:03:41;101271.64;;;16.42
48894;BMP280;34710;35.798;139.446;2023-04-25T04:06:07;101268.50;;;17.43
48894;BMP280;34710;35.798;139.446;2023-04-25T04:08:32;101261.76;;;17.93
48894;BMP280;34710;35.798;139.446;2023-04-25T04:10:57;101262.41;;;16.70
48894;BMP280;34710;35.798;139.446;2023-04-25T04:13:22;101258.72;;;16.40
48894;BMP280;34710;35.798;139.446;2023-04-25T04:15:48;101250.72;;;16.09
48894;BMP280;34710;35.798;139.446;2023-04-25T04:18:13;101246.59;;;16.27
48894;BMP280;34710;35.798;139.446;2023-04-25T04:20:38;101246.57;;;16.81
48894;BMP280;34710;35.798;139.446;2023-04-25T04:23:03;101254.40;;;16.66
48894;BMP280;34710;35.798;139.446;2023-04-25T04:25:28;101246.71;;;16.61
48894;BMP280;34710;35.798;139.446;2023-04-25T04:27:54;101250.01;;;15.83
48894;BMP280;34710;35.798;139.446;2023-04-25T04:30:19;101253.26;;;16.05
48894;BMP280;34710;35.798;139.446;2023-04-25T04:32:46;101257.23;;;15.41
48894;BMP280;34710;35.798;139.446;2023-04-25T04:35:11;101258.58;;;15.59
48894;BMP280;34710;35.798;139.446;2023-04-25T04:37:36;101263.78;;;15.05
48894;BMP280;34710;35.798;139.446;2023-04-25T04:40:02;101257.59;;;15.39
48894;BMP280;34710;35.798;139.446;2023-04-25T04:42:26;101258.41;;;15.66
48894;BMP280;34710;35.798;139.446;2023-04-25T04:44:52;101251.27;;;15.23
48894;BMP280;34710;35.798;139.446;2023-04-25T04:47:17;101250.41;;;16.12
48894;BMP280;34710;35.798;139.446;2023-04-25T04:49:44;101246.97;;;16.03
48894;BMP280;34710;35.798;139.446;2023-04-25T04:52:09;101246.14;;;15.14
48894;BMP280;34710;35.798;139.446;2023-04-25T04:54:36;101250.98;;;16.00
48894;BMP280;34710;35.798;139.446;2023-04-25T04:57:01;101255.01;;;15.15
48894;BMP280;34710;35.798;139.446;2023-04-25T04:59:26;101256.75;;;15.39
48894;BMP280;34710;35.798;139.446;2023-04-25T05:01:54;101247.63;;;15.37
48894;BMP280;34710;35.798;139.446;2023-04-25T05:04:18;101240.23;;;15.52
48894;BMP280;34710;35.798;139.446;2023-04-25T05:06:43;101238.88;;;15.41
48894;BMP280;34710;35.798;139.446;2023-04-25T05:09:09;101247.81;;;13.78
48894;BMP280;34710;35.798;139.446;2023-04-25T05:11:34;101252.70;;;13.94
48894;BMP280;34710;35.798;139.446;2023-04-25T05:13:59;101253.71;;;13.87
48894;BMP280;34710;35.798;139.446;2023-04-25T05:16:25;101252.12;;;13.86
48894;BMP280;34710;35.798;139.446;2023-04-25T05:18:51;101261.51;;;13.98
48894;BMP280;34710;35.798;139.446;2023-04-25T05:21:16;101256.44;;;13.58
48894;BMP280;34710;35.798;139.446;2023-04-25T05:23:41;101249.97;;;14.75
48894;BMP280;34710;35.798;139.446;2023-04-25T05:26:07;101249.65;;;14.70
48894;BMP280;34710;35.798;139.446;2023-04-25T05:28:33;101248.95;;;15.77
48894;BMP280;34710;35.798;139.446;2023-04-25T05:30:58;101245.87;;;16.27
48894;BMP280;34710;35.798;139.446;2023-04-25T05:33:24;101241.81;;;14.74
48894;BMP280;34710;35.798;139.446;2023-04-25T05:35:50;101234.89;;;14.64
48894;BMP280;34710;35.798;139.446;2023-04-25T05:38:16;101227.66;;;15.52
48894;BMP280;34710;35.798;139.446;2023-04-25T05:40:41;101225.31;;;14.57
48894;BMP280;34710;35.798;139.446;2023-04-25T05:43:06;101220.29;;;15.30
48894;BMP280;34710;35.798;139.446;2023-04-25T05:45:31;101219.74;;;15.67
48894;BMP280;34710;35.798;139.446;2023-04-25T05:47:56;101224.93;;;16.89
48894;BMP280;34710;35.798;139.446;2023-04-25T05:50:22;101224.79;;;15.80
48894;BMP280;34710;35.798;139.446;2023-04-25T05:52:47;101219.61;;;15.28
48894;BMP280;34710;35.798;139.446;2023-04-25T05:55:12;101219.04;;;16.06
48894;BMP280;34710;35.798;139.446;2023-04-25T05:57:38;101212.02;;;16.87
48894;BMP280;34710;35.798;139.446;2023-04-25T06:00:04;101216.72;;;17.34
48894;BMP280;34710;35.798;139.446;2023-04-25T06:02:29;101219.36;;;16.83
48894;BMP280;34710;35.798;139.446;2023-04-25T06:07:20;101219.38;;;16.88
48894;BMP280;34710;35.798;139.446;2023-04-25T06:09:45;101221.65;;;16.52
48894;BMP280;34710;35.798;139.446;2023-04-25T06:12:11;101223.14;;;17.49
48894;BMP280;34710;35.798;139.446;2023-04-25T06:14:39;101220.84;;;15.60
48894;BMP280;34710;35.798;139.446;2023-04-25T06:17:03;101214.45;;;15.12
48894;BMP280;34710;35.798;139.446;2023-04-25T06:19:29;101208.03;;;16.63
48894;BMP280;34710;35.798;139.446;2023-04-25T06:21:53;101200.34;;;16.28
48894;BMP280;34710;35.798;139.446;2023-04-25T06:24:19;101200.03;;;15.30
48894;BMP280;34710;35.798;139.446;2023-04-25T06:26:44;101198.65;;;16.21
48894;BMP280;34710;35.798;139.446;2023-04-25T06:29:10;101199.95;;;17.04
48894;BMP280;34710;35.798;139.446;2023-04-25T06:31:35;101195.69;;;15.75
48894;BMP280;34710;35.798;139.446;2023-04-25T06:34:00;101194.71;;;16.57
48894;BMP280;34710;35.798;139.446;2023-04-25T06:36:26;101190.34;;;16.58
48894;BMP280;34710;35.798;139.446;2023-04-25T06:38:52;101185.81;;;15.47
48894;BMP280;34710;35.798;139.446;2023-04-25T06:41:17;101181.51;;;15.48
48894;BMP280;34710;35.798;139.446;2023-04-25T06:43:42;101184.63;;;15.46
48894;BMP280;34710;35.798;139.446;2023-04-25T06:46:09;101185.96;;;14.69
48894;BMP280;34710;35.798;139.446;2023-04-25T06:48:33;101191.45;;;14.12
48894;BMP280;34710;35.798;139.446;2023-04-25T06:50:58;101182.76;;;14.49
48894;BMP280;34710;35.798;139.446;2023-04-25T06:53:26;101182.34;;;14.98
48894;BMP280;34710;35.798;139.446;2023-04-25T06:55:48;101178.33;;;15.49
48894;BMP280;34710;35.798;139.446;2023-04-25T06:58:14;101180.68;;;14.92
48894;BMP280;34710;35.798;139.446;2023-04-25T07:00:42;101182.01;;;15.29
48894;BMP280;34710;35.798;139.446;2023-04-25T07:03:05;101181.52;;;15.02
48894;BMP280;34710;35.798;139.446;2023-04-25T07:05:31;101175.01;;;15.64
48894;BMP280;34710;35.798;139.446;2023-04-25T07:07:57;101170.59;;;16.58
48894;BMP280;34710;35.798;139.446;2023-04-25T07:10:23;101169.72;;;16.40
48894;BMP280;34710;35.798;139.446;2023-04-25T07:12:50;101166.08;;;16.10
48894;BMP280;34710;35.798;139.446;2023-04-25T07:15:15;101165.18;;;15.80
48894;BMP280;34710;35.798;139.446;2023-04-25T07:17:39;101173.32;;;14.80
48894;BMP280;34710;35.798;139.446;2023-04-25T07:20:04;101171.44;;;14.07
48894;BMP280;34710;35.798;139.446;2023-04-25T07:22:29;101173.12;;;14.34
48894;BMP280;34710;35.798;139.446;2023-04-25T07:24:55;101173.10;;;14.63
48894;BMP280;34710;35.798;139.446;2023-04-25T07:27:20;101171.93;;;14.20
48894;BMP280;34710;35.798;139.446;2023-04-25T07:29:46;101171.67;;;15.09
48894;BMP280;34710;35.798;139.446;2023-04-25T07:32:12;101171.28;;;15.52
48894;BMP280;34710;35.798;139.446;2023-04-25T07:34:37;101170.82;;;15.85
48894;BMP280;34710;35.798;139.446;2023-04-25T07:37:02;101172.05;;;15.09
48894;BMP280;34710;35.798;139.446;2023-04-25T07:39:28;101177.38;;;16.01
48894;BMP280;34710;35.798;139.446;2023-04-25T07:41:55;101175.95;;;14.67
48894;BMP280;34710;35.798;139.446;2023-04-25T07:44:19;101174.02;;;14.86
48894;BMP280;34710;35.798;139.446;2023-04-25T07:46:45;101168.94;;;15.66
48894;BMP280;34710;35.798;139.446;2023-04-25T07:49:10;101169.33;;;16.10
48894;BMP280;34710;35.798;139.446;2023-04-25T07:51:36;101169.16;;;14.34
48894;BMP280;34710;35.798;139.446;2023-04-25T07:54:01;101167.50;;;13.80
48894;BMP280;34710;35.798;139.446;2023-04-25T07:56:28;101170.95;;;14.15
48894;BMP280;34710;35.798;139.446;2023-04-25T07:58:53;101172.87;;;14.35
48894;BMP280;34710;35.798;139.446;2023-04-25T08:01:20;101178.42;;;13.98
48894;BMP280;34710;35.798;139.446;2023-04-25T08:03:45;101174.96;;;13.67
48894;BMP280;34710;35.798;139.446;2023-04-25T08:06:12;101169.43;;;14.03
48894;BMP280;34710;35.798;139.446;2023-04-25T08:08:34;101173.52;;;13.48
48894;BMP280;34710;35.798;139.446;2023-04-25T08:11:00;101168.98;;;13.99
48894;BMP280;34710;35.798;139.446;2023-04-25T08:13:26;101165.51;;;13.97
48894;BMP280;34710;35.798;139.446;2023-04-25T08:15:53;101169.28;;;13.79
48894;BMP280;34710;35.798;139.446;2023-04-25T08:18:16;101169.81;;;13.79
48894;BMP280;34710;35.798;139.446;2023-04-25T08:20:42;101170.71;;;13.58
48894;BMP280;34710;35.798;139.446;2023-04-25T08:23:08;101176.00;;;13.65
48894;BMP280;34710;35.798;139.446;2023-04-25T08:25:33;101174.39;;;13.12
48894;BMP280;34710;35.798;139.446;2023-04-25T08:27:59;101170.15;;;14.50
48894;BMP280;34710;35.798;139.446;2023-04-25T08:30:25;101173.64;;;13.26
48894;BMP280;34710;35.798;139.446;2023-04-25T08:32:52;101174.13;;;13.20
48894;BMP280;34710;35.798;139.446;2023-04-25T08:35:15;101168.84;;;13.83
48894;BMP280;34710;35.798;139.446;2023-04-25T08:37:42;101167.66;;;14.70
48894;BMP280;34710;35.798;139.446;2023-04-25T08:40:15;101168.08;;;14.41
48894;BMP280;34710;35.798;139.446;2023-04-25T08:42:34;101168.64;;;14.48
48894;BMP280;34710;35.798;139.446;2023-04-25T08:44:58;101168.47;;;14.86
48894;BMP280;34710;35.798;139.446;2023-04-25T08:47:23;101172.99;;;14.46
48894;BMP280;34710;35.798;139.446;2023-04-25T08:49:48;101177.88;;;14.36
48894;BMP280;34710;35.798;139.446;2023-04-25T08:52:16;101180.95;;;15.52
48894;BMP280;34710;35.798;139.446;2023-04-25T08:54:43;101184.27;;;14.89
48894;BMP280;34710;35.798;139.446;2023-04-25T08:57:04;101174.61;;;14.98
48894;BMP280;34710;35.798;139.446;2023-04-25T08:59:31;101175.19;;;16.01
48894;BMP280;34710;35.798;139.446;2023-04-25T09:01:58;101173.52;;;15.98
48894;BMP280;34710;35.798;139.446;2023-04-25T09:04:22;101172.98;;;16.14
48894;BMP280;34710;35.798;139.446;2023-04-25T09:06:48;101166.48;;;14.11
48894;BMP280;34710;35.798;139.446;2023-04-25T09:09:12;101168.18;;;15.19
48894;BMP280;34710;35.798;139.446;2023-04-25T09:11:37;101169.16;;;15.85
48894;BMP280;34710;35.798;139.446;2023-04-25T09:14:13;101172.38;;;16.03
48894;BMP280;34710;35.798;139.446;2023-04-25T09:16:29;101164.54;;;16.96
48894;BMP280;34710;35.798;139.446;2023-04-25T09:18:53;101163.10;;;14.94
48894;BMP280;34710;35.798;139.446;2023-04-25T09:21:23;101174.17;;;16.43
48894;BMP280;34710;35.798;139.446;2023-04-25T09:23:46;101178.73;;;16.18
48894;BMP280;34710;35.798;139.446;2023-04-25T09:26:10;101179.33;;;15.00
48894;BMP280;34710;35.798;139.446;2023-04-25T09:28:35;101178.63;;;14.54
48894;BMP280;34710;35.798;139.446;2023-04-25T09:31:00;101172.85;;;13.92
48894;BMP280;34710;35.798;139.446;2023-04-25T09:33:30;101182.87;;;14.26
48894;BMP280;34710;35.798;139.446;2023-04-25T09:35:52;101184.38;;;14.39
48894;BMP280;34710;35.798;139.446;2023-04-25T09:38:18;101185.95;;;15.04
48894;BMP280;34710;35.798;139.446;2023-04-25T09:40:44;101189.66;;;14.70
48894;BMP280;34710;35.798;139.446;2023-04-25T09:43:10;101189.76;;;13.55
48894;BMP280;34710;35.798;139.446;2023-04-25T09:45:35;101193.65;;;13.62
48894;BMP280;34710;35.798;139.446;2023-04-25T09:48:06;101192.59;;;13.81
48894;BMP280;34710;35.798;139.446;2023-04-25T09:50:27;101190.14;;;14.52
48894;BMP280;34710;35.798;139.446;2023-04-25T09:55:18;101193.28;;;14.52
48894;BMP280;34710;35.798;139.446;2023-04-25T09:57:41;101197.56;;;14.74
48894;BMP280;34710;35.798;139.446;2023-04-25T10:00:07;101194.48;;;15.25
48894;BMP280;34710;35.798;139.446;2023-04-25T10:02:32;101192.02;;;15.78
48894;BMP280;34710;35.798;139.446;2023-04-25T10:04:57;101192.41;;;15.50
48894;BMP280;34710;35.798;139.446;2023-04-25T10:07:24;101195.50;;;14.78
48894;BMP280;34710;35.798;139.446;2023-04-25T10:09:50;101194.65;;;15.41
48894;BMP280;34710;35.798;139.446;2023-04-25T10:12:12;101193.15;;;15.31
48894;BMP280;34710;35.798;139.446;2023-04-25T10:14:41;101197.60;;;15.15
48894;BMP280;34710;35.798;139.446;2023-04-25T10:17:05;101198.62;;;14.78
48894;BMP280;34710;35.798;139.446;2023-04-25T10:19:30;101203.38;;;15.66
48894;BMP280;34710;35.798;139.446;2023-04-25T10:22:02;101206.29;;;16.18
48894;BMP280;34710;35.798;139.446;2023-04-25T10:24:21;101202.28;;;16.91
48894;BMP280;34710;35.798;139.446;2023-04-25T10:26:46;101205.35;;;16.51
48894;BMP280;34710;35.798;139.446;2023-04-25T10:29:11;101202.69;;;16.64
48894;BMP280;34710;35.798;139.446;2023-04-25T10:31:46;101204.35;;;16.55
48894;BMP280;34710;35.798;139.446;2023-04-25T10:34:02;101201.33;;;16.45
48894;BMP280;34710;35.798;139.446;2023-04-25T10:36:32;101200.44;;;16.79
48894;BMP280;34710;35.798;139.446;2023-04-25T10:38:54;101199.01;;;16.95
48894;BMP280;34710;35.798;139.446;2023-04-25T10:41:21;101194.19;;;17.04
48894;BMP280;34710;35.798;139.446;2023-04-25T10:43:46;101193.62;;;15.71
48894;BMP280;34710;35.798;139.446;2023-04-25T10:46:16;101186.59;;;15.41
48894;BMP280;34710;35.798;139.446;2023-04-25T10:48:36;101186.52;;;15.90
48894;BMP280;34710;35.798;139.446;2023-04-25T10:51:08;101189.22;;;14.95
48894;BMP280;34710;35.798;139.446;2023-04-25T10:53:33;101192.75;;;14.87
48894;BMP280;34710;35.798;139.446;2023-04-25T10:55:53;101189.97;;;14.26
48894;BMP280;34710;35.798;139.446;2023-04-25T10:58:23;101186.18;;;15.38
48894;BMP280;34710;35.798;139.446;2023-04-25T11:00:43;101177.72;;;15.83
48894;BMP280;34710;35.798;139.446;2023-04-25T11:03:08;101171.76;;;17.45
48894;BMP280;34710;35.798;139.446;2023-04-25T11:05:36;101171.00;;;16.90
48894;BMP280;34710;35.798;139.446;2023-04-25T11:08:00;101164.92;;;17.24
48894;BMP280;34710;35.798;139.446;2023-04-25T11:10:29;101161.66;;;16.29
48894;BMP280;34710;35.798;139.446;2023-04-25T11:12:50;101162.26;;;16.81
48894;BMP280;34710;35.798;139.446;2023-04-25T11:15:15;101160.35;;;16.76
48894;BMP280;34710;35.798;139.446;2023-04-25T11:17:41;101155.59;;;17.05
48894;BMP280;34710;35.798;139.446;2023-04-25T11:20:07;101151.33;;;15.88
48894;BMP280;34710;35.798;139.446;2023-04-25T11:22:32;101149.01;;;14.94
48894;BMP280;34710;35.798;139.446;2023-04-25T11:24:56;101148.49;;;16.01
48894;BMP280;34710;35.798;139.446;2023-04-25T11:27:24;101143.25;;;15.83
48894;BMP280;34710;35.798;139.446;2023-04-25T11:29:48;101139.50;;;15.59
48894;BMP280;34710;35.798;139.446;2023-04-25T11:32:13;101138.93;;;15.92
48894;BMP280;34710;35.798;139.446;2023-04-25T11:34:38;101138.66;;;17.08
48894;BMP280;34710;35.798;139.446;2023-04-25T11:37:05;101143.88;;;15.81
48894;BMP280;34710;35.798;139.446;2023-04-25T11:39:29;101139.53;;;16.28
48894;BMP280;34710;35.798;139.446;2023-04-25T11:41:55;101136.38;;;16.63
48894;BMP280;34710;35.798;139.446;2023-04-25T11:44:21;101135.03;;;15.75
48894;BMP280;34710;35.798;139.446;2023-04-25T11:46:46;101138.48;;;16.72
48894;BMP280;34710;35.798;139.446;2023-04-25T11:49:12;101146.00;;;17.22
48894;BMP280;34710;35.798;139.446;2023-04-25T11:51:40;101155.21;;;16.63
48894;BMP280;34710;35.798;139.446;2023-04-25T11:54:03;101149.91;;;16.95
48894;BMP280;34710;35.798;139.446;2023-04-25T11:56:29;101146.25;;;17.01
48894;BMP280;34710;35.798;139.446;2023-04-25T11:59:00;101135.77;;;16.57
48894;BMP280;34710;35.798;139.446;2023-04-25T12:01:26;101127.83;;;16.32
48894;BMP280;34710;35.798;139.446;2023-04-25T12:03:47;101122.33;;;17.37
48894;BMP280;34710;35.798;139.446;2023-04-25T12:06:17;101135.97;;;17.84
48894;BMP280;34710;35.798;139.446;2023-04-25T12:08:36;101147.50;;;16.84
48894;BMP280;34710;35.798;139.446;2023-04-25T12:11:02;101151.37;;;15.90
48894;BMP280;34710;35.798;139.446;2023-04-25T12:13:31;101150.89;;;15.52
48894;BMP280;34710;35.798;139.446;2023-04-25T12:15:56;101145.23;;;15.74
48894;BMP280;34710;35.798;139.446;2023-04-25T12:18:22;101144.91;;;14.21
48894;BMP280;34710;35.798;139.446;2023-04-25T12:20:44;101138.32;;;14.54
48894;BMP280;34710;35.798;139.446;2023-04-25T12:23:10;101125.13;;;15.23
48894;BMP280;34710;35.798;139.446;2023-04-25T12:25:38;101119.55;;;15.40
48894;BMP280;34710;35.798;139.446;2023-04-25T12:28:10;101121.93;;;14.59
48894;BMP280;34710;35.798;139.446;2023-04-25T12:30:26;101119.22;;;15.41
48894;BMP280;34710;35.798;139.446;2023-04-25T12:32:52;101121.10;;;15.05
48894;BMP280;34710;35.798;139.446;2023-04-25T12:35:17;101128.66;;;14.99
48894;BMP280;34710;35.798;139.446;2023-04-25T12:37:44;101126.47;;;14.64
48894;BMP280;34710;35.798;139.446;2023-04-25T12:40:09;101120.62;;;14.90
48894;BMP280;34710;35.798;139.446;2023-04-25T12:42:34;101121.71;;;15.71
48894;BMP280;34710;35.798;139.446;2023-04-25T12:44:59;101113.17;;;15.39
48894;BMP280;34710;35.798;139.446;2023-04-25T12:47:24;101109.80;;;15.36
48894;BMP280;34710;35.798;139.446;2023-04-25T12:49:49;101110.81;;;16.04
48894;BMP280;34710;35.798;139.446;2023-04-25T12:52:15;101112.46;;;16.60
48894;BMP280;34710;35.798;139.446;2023-04-25T12:54:42;101107.84;;;15.24
48894;BMP280;34710;35.798;139.446;2023-04-25T12:57:07;101109.12;;;16.28
48894;BMP280;34710;35.798;139.446;2023-04-25T12:59:31;101106.65;;;16.75
48894;BMP280;34710;35.798;139.446;2023-04-25T13:01:57;101100.68;;;17.35
48894;BMP280;34710;35.798;139.446;2023-04-25T13:04:22;101089.84;;;17.45
48894;BMP280;34710;35.798;139.446;2023-04-25T13:06:48;101080.26;;;16.94
48894;BMP280;34710;35.798;139.446;2023-04-25T13:09:14;101077.43;;;16.96
48894;BMP280;34710;35.798;139.446;2023-04-25T13:11:41;101074.85;;;18.00
48894;BMP280;34710;35.798;139.446;2023-04-25T13:14:04;101073.60;;;17.29
48894;BMP280;34710;35.798;139.446;2023-04-25T13:16:29;101071.93;;;16.32
48894;BMP280;34710;35.798;139.446;2023-04-25T13:18:55;101061.17;;;17.41
48894;BMP280;34710;35.798;139.446;2023-04-25T13:21:19;101051.74;;;17.44
48894;BMP280;34710;35.798;139.446;2023-04-25T13:23:46;101046.72;;;17.62
48894;BMP280;34710;35.798;139.446;2023-04-25T13:26:11;101048.72;;;17.00